ADDS METAR Data INFO
IDs: Format: Raw Decoded Include TAF

Data at: 0644 UTC 23 Feb 2018

KRWI 230553Z AUTO 03007KT 10SM BKN047 17/16 A3044 RMK AO2 SLP309 T01720156 10183 20133 58001
KRWI 230453Z AUTO 17003KT 10SM OVC050 17/15 A3044 RMK AO2 SLP309 T01670150 402500133
KRWI 230353Z AUTO 00000KT 10SM OVC047 16/14 A3045 RMK AO2 SLP311 T01560144
KRWI 230253Z AUTO 00000KT 9SM CLR 14/13 A3045 RMK AO2 SLP309 T01390133 53016
KRWI 230153Z AUTO 00000KT 10SM CLR 16/15 A3042 RMK AO2 SLP301 T01610150
KRWI 230053Z AUTO 17003KT 10SM CLR 16/14 A3040 RMK AO2 SLP295 T01610144
KRWI 222353Z AUTO 00000KT 10SM CLR 18/16 A3040 RMK AO2 SLP293 T01830156 10250 20183 53006
KRWI 222253Z AUTO 17004KT 10SM CLR 21/16 A3039 RMK AO2 SLP291 T02110156
KRWI 222153Z AUTO 21008KT 10SM CLR 24/16 A3038 RMK AO2 SLP286 T02440156
KRWI 222053Z AUTO 19009KT 10SM CLR 25/16 A3038 RMK AO2 SLP286 T02500161 56021
KRWI 221953Z AUTO 24010G16KT 10SM FEW037 OVC048 24/17 A3040 RMK AO2 SLP292 T02390172
KRWI 221853Z AUTO 21011KT 10SM BKN038 OVC050 24/16 A3042 RMK AO2 SLP300 T02390161
KRWI 221753Z AUTO 19011KT 10SM BKN046 24/18 A3044 RMK AO2 SLP307 T02440178 10244 20183 $
KRWI 221653Z AUTO 20012KT 10SM SCT024 BKN031 23/18 A3047 RMK AO2 SLP317 T02280178 $
KRWI 221645Z AUTO 20010KT 10SM SCT022 BKN029 23/18 A3047 RMK AO2 T02330178 $
KRWI 221553Z AUTO 20008KT 10SM BKN024 BKN030 OVC037 21/17 A3048 RMK AO2 SLP322 T02110172
KRWI 221519Z AUTO 20014KT 10SM SCT014 OVC020 21/18 A3048 RMK AO2 T02110178
KRWI 221453Z AUTO 20011G16KT 10SM OVC014 21/18 A3049 RMK AO2 SLP323 T02110178 53009
KRWI 221425Z AUTO 21008KT 10SM OVC010 20/18 A3048 RMK AO2 T02000178
KRWI 221353Z AUTO 20010G16KT 8SM BKN009 OVC013 19/18 A3047 RMK AO2 CIG 007V011 SLP318 T01940183
KRWI 221253Z AUTO 18006KT 4SM BR OVC006 18/18 A3047 RMK AO2 SLP317 T01830178
KRWI 221153Z AUTO 20006KT 7SM OVC006 18/18 A3046 RMK AO2 SLP314 T01830178 10183 20178 53010
KRWI 221053Z AUTO 21007KT 7SM OVC005 18/18 A3044 RMK AO2 SLP307 T01830178 $
KRWI 221023Z AUTO 19006KT 5SM BR OVC004 18/18 A3043 RMK AO2 T01830178 $
KRWI 220953Z AUTO 20007KT 8SM OVC006 18/18 A3043 RMK AO2 SLP302 T01830178 $
KRWI 220853Z AUTO 19005KT 7SM OVC006 18/18 A3043 RMK AO2 SLP302 T01830178 55001 $
KRWI 212353Z AUTO 00000KT 10SM CLR 18/17 A3040 RMK AO2 SLP295 T01780167 10250 20178 53000 $
KRWI 212253Z AUTO 00000KT 10SM 21/17 A3040 RMK AO2 SLP294 T02060172 $
KRWI 212153Z AUTO 23005KT 10SM CLR 25/17 A3040 RMK AO2 SLP293 T02500167
KRWI 212053Z AUTO 24007KT 10SM CLR 25/17 A3040 RMK AO2 SLP294 T02500172 56015
KRWI 211953Z AUTO 22008KT 10SM BKN037 OVC047 23/17 A3041 RMK AO2 SLP297 T02330172
KRWI 211853Z AUTO 21007KT 10SM FEW025 BKN045 24/18 A3042 RMK AO2 SLP299 T02440178